Time;durP1;ratioP1;P1;durP2;ratioP2;P2;SDS_P1;SDS_P2;PMS_P1;PMS_P2;Temp;Humidity;BMP_temperature;BMP_pressure;BME280_temperature;BME280_humidity;BME280_pressure;Samples;Min_cycle;Max_cycle;Signal;HPM_P1;HPM_P2
2020/12/07 00:01:30;;;;;;;9.77;6.50;;;1.70;99.90;;;;;;3492003;41;20346;-84
2020/12/07 00:03:56;;;;;;;7.80;6.93;;;1.70;99.90;;;;;;3496055;41;20303;-85
2020/12/07 00:06:21;;;;;;;8.13;6.50;;;1.70;99.90;;;;;;3494590;41;20365;-84
2020/12/07 00:08:47;;;;;;;7.10;5.97;;;1.80;99.90;;;;;;3490693;41;20261;-86
2020/12/07 00:11:13;;;;;;;8.47;6.50;;;1.80;99.90;;;;;;3494058;41;20269;-86
2020/12/07 00:13:39;;;;;;;8.30;6.37;;;1.80;99.90;;;;;;3487945;40;20362;-85
2020/12/07 00:16:11;;;;;;;6.70;5.30;;;1.80;99.90;;;;;;3492357;40;20683;-85
2020/12/07 00:18:37;;;;;;;7.20;5.50;;;1.80;99.90;;;;;;3496152;33;20306;-86
2020/12/07 00:21:08;;;;;;;6.80;5.83;;;1.80;99.90;;;;;;3495971;41;20855;-85
2020/12/07 00:23:34;;;;;;;6.27;5.67;;;1.80;99.90;;;;;;3496521;41;20357;-85
2020/12/07 00:25:59;;;;;;;9.77;6.77;;;1.80;99.90;;;;;;3496043;41;20344;-85
2020/12/07 00:28:25;;;;;;;7.23;6.53;;;1.80;99.90;;;;;;3493871;41;20348;-86
2020/12/07 00:30:51;;;;;;;6.40;5.80;;;1.80;99.90;;;;;;3495423;41;20246;-86
2020/12/07 00:33:16;;;;;;;6.37;5.40;;;1.80;99.90;;;;;;3492977;41;20488;-85
2020/12/07 00:35:42;;;;;;;5.97;4.80;;;1.90;99.90;;;;;;3493363;40;20280;-85
2020/12/07 00:38:08;;;;;;;5.70;5.17;;;1.90;99.90;;;;;;3491911;41;20266;-86
2020/12/07 00:40:33;;;;;;;5.00;4.50;;;1.90;99.90;;;;;;3492086;41;20250;-85
2020/12/07 00:42:59;;;;;;;5.43;4.70;;;2.00;99.90;;;;;;3495549;41;20304;-85
2020/12/07 00:45:25;;;;;;;5.33;4.93;;;2.00;99.90;;;;;;3495236;41;20253;-86
2020/12/07 00:47:50;;;;;;;5.20;4.40;;;1.90;99.90;;;;;;3493388;41;20288;-85
2020/12/07 00:50:16;;;;;;;5.37;3.90;;;1.90;99.90;;;;;;3491313;33;20948;-85
2020/12/07 00:52:42;;;;;;;5.40;4.63;;;1.90;99.90;;;;;;3496261;41;20316;-85
2020/12/07 00:55:08;;;;;;;5.00;4.50;;;1.90;99.90;;;;;;3494144;33;20370;-85
2020/12/07 00:57:34;;;;;;;6.00;3.93;;;1.90;99.90;;;;;;3494789;41;20882;-86
2020/12/07 00:59:59;;;;;;;4.47;3.83;;;1.90;99.90;;;;;;3494645;41;20870;-85
2020/12/07 01:02:25;;;;;;;4.20;3.80;;;1.90;99.90;;;;;;3491313;40;20410;-85
2020/12/07 01:04:51;;;;;;;3.80;3.50;;;1.90;99.90;;;;;;3493487;40;20258;-85
2020/12/07 01:07:16;;;;;;;5.60;4.77;;;1.90;99.90;;;;;;3494878;41;20261;-86
2020/12/07 01:09:42;;;;;;;5.00;3.47;;;1.90;99.90;;;;;;3491708;41;20289;-85
2020/12/07 01:12:08;;;;;;;4.40;3.37;;;1.90;99.90;;;;;;3495777;41;20257;-85
2020/12/07 01:14:34;;;;;;;3.60;3.30;;;1.90;99.90;;;;;;3501563;33;20246;-85
2020/12/07 01:16:59;;;;;;;5.47;3.80;;;1.90;99.90;;;;;;3492373;41;20354;-86
2020/12/07 01:19:26;;;;;;;5.10;4.17;;;1.90;99.90;;;;;;3494871;41;20963;-86
2020/12/07 01:21:51;;;;;;;4.83;4.00;;;1.90;99.90;;;;;;3493720;41;20277;-86
2020/12/07 01:24:17;;;;;;;4.00;3.60;;;1.90;99.90;;;;;;3494133;41;20682;-85
2020/12/07 01:26:43;;;;;;;4.90;3.53;;;1.90;99.90;;;;;;3492627;41;20285;-85
2020/12/07 01:29:08;;;;;;;3.50;3.10;;;1.90;99.90;;;;;;3493593;41;20242;-86
2020/12/07 01:31:34;;;;;;;3.67;2.70;;;1.90;99.90;;;;;;3493196;41;20396;-85
2020/12/07 01:34:01;;;;;;;3.83;3.47;;;1.80;99.90;;;;;;3493364;41;20249;-86
2020/12/07 01:36:27;;;;;;;4.17;3.23;;;1.80;99.90;;;;;;3494442;41;20470;-85
2020/12/07 01:38:52;;;;;;;3.00;2.70;;;1.80;99.90;;;;;;3494081;41;20378;-86
2020/12/07 01:41:18;;;;;;;3.70;3.07;;;1.80;99.90;;;;;;3491244;41;20367;-86
2020/12/07 01:43:44;;;;;;;2.97;2.67;;;1.80;99.90;;;;;;3492920;41;20316;-87
2020/12/07 01:46:24;;;;;;;2.77;2.57;;;1.90;99.90;;;;;;3495277;41;20370;-87
2020/12/07 01:48:56;;;;;;;3.03;2.73;;;1.80;99.90;;;;;;3495942;33;20399;-86
2020/12/07 01:51:22;;;;;;;2.00;1.90;;;1.90;99.90;;;;;;3490777;41;20489;-86
2020/12/07 01:53:48;;;;;;;3.77;2.90;;;1.90;99.90;;;;;;3496353;41;20366;-86
2020/12/07 01:56:25;;;;;;;2.40;2.20;;;1.90;99.90;;;;;;3499275;33;21008;-86
2020/12/07 01:58:51;;;;;;;2.63;2.43;;;1.90;99.90;;;;;;3492825;41;20740;-86
2020/12/07 02:01:17;;;;;;;2.93;2.47;;;2.00;99.90;;;;;;3491703;41;20330;-86
2020/12/07 02:03:42;;;;;;;2.63;2.20;;;2.00;99.90;;;;;;3498003;41;20269;-86
2020/12/07 02:06:08;;;;;;;3.27;2.80;;;2.00;99.90;;;;;;3493560;41;20250;-86
2020/12/07 02:08:34;;;;;;;2.70;2.50;;;2.10;99.90;;;;;;3493151;41;20262;-85
2020/12/07 02:11:01;;;;;;;2.63;2.43;;;2.20;99.90;;;;;;3496735;41;20389;-85
2020/12/07 02:13:27;;;;;;;2.90;2.43;;;2.20;99.90;;;;;;3492559;33;20659;-85
2020/12/07 02:15:53;;;;;;;4.30;2.50;;;2.20;99.90;;;;;;3491564;41;20369;-85
2020/12/07 02:18:18;;;;;;;3.23;2.93;;;2.10;99.90;;;;;;3496679;41;20269;-85
2020/12/07 02:20:48;;;;;;;3.97;2.40;;;2.20;99.90;;;;;;3494179;41;20253;-85
2020/12/07 02:23:19;;;;;;;3.40;2.63;;;2.20;99.90;;;;;;3497240;33;20670;-85
2020/12/07 02:25:45;;;;;;;2.10;2.00;;;2.20;99.90;;;;;;3495515;40;20345;-85
2020/12/07 02:28:10;;;;;;;2.53;2.33;;;2.20;99.90;;;;;;3494806;41;20346;-85
2020/12/07 02:30:36;;;;;;;2.40;2.20;;;2.20;99.90;;;;;;3493101;40;20834;-85
2020/12/07 02:33:02;;;;;;;2.27;2.07;;;2.20;99.90;;;;;;3495480;41;20245;-85
2020/12/07 02:35:27;;;;;;;2.60;2.33;;;2.20;99.90;;;;;;3493314;41;20268;-84
2020/12/07 02:37:53;;;;;;;2.33;2.13;;;2.20;99.90;;;;;;3495600;41;20280;-84
2020/12/07 02:40:19;;;;;;;2.40;2.20;;;2.20;99.90;;;;;;3492698;41;20270;-85
2020/12/07 02:42:44;;;;;;;2.73;2.43;;;2.20;99.90;;;;;;3490359;40;20269;-85
2020/12/07 02:45:15;;;;;;;2.60;2.40;;;2.20;99.90;;;;;;3494444;41;20257;-84
2020/12/07 02:47:41;;;;;;;2.53;2.03;;;2.20;99.90;;;;;;3497289;33;20335;-84
2020/12/07 02:50:09;;;;;;;2.50;2.30;;;2.20;99.90;;;;;;3496790;33;20445;-85
2020/12/07 02:52:35;;;;;;;3.13;2.67;;;2.20;99.90;;;;;;3501791;40;20408;-85
2020/12/07 02:55:06;;;;;;;2.43;2.23;;;2.20;99.90;;;;;;3495146;41;20410;-84
2020/12/07 02:57:32;;;;;;;2.47;2.20;;;2.30;99.90;;;;;;3503465;33;20376;-85
2020/12/07 02:59:58;;;;;;;3.67;2.53;;;2.30;99.90;;;;;;3493219;40;20389;-85
2020/12/07 03:02:24;;;;;;;1.90;1.80;;;2.30;99.90;;;;;;3495346;40;20258;-85
2020/12/07 03:04:49;;;;;;;2.10;2.00;;;2.40;99.90;;;;;;3494762;41;20286;-85
2020/12/07 03:07:15;;;;;;;1.87;1.77;;;2.40;99.90;;;;;;3496434;41;20367;-85
2020/12/07 03:09:41;;;;;;;2.07;1.97;;;2.40;99.90;;;;;;3504265;33;20532;-85
2020/12/07 03:12:07;;;;;;;2.50;2.30;;;2.40;99.90;;;;;;3495935;40;20281;-85
2020/12/07 03:14:33;;;;;;;2.20;2.10;;;2.40;99.90;;;;;;3495305;41;21296;-85
2020/12/07 03:16:59;;;;;;;1.97;1.73;;;2.50;99.90;;;;;;3494296;40;21850;-85
2020/12/07 03:19:25;;;;;;;2.10;1.90;;;2.50;99.90;;;;;;3495670;33;20381;-85
2020/12/07 03:21:51;;;;;;;2.50;2.30;;;2.50;99.90;;;;;;3494190;40;20999;-85
2020/12/07 03:24:16;;;;;;;2.17;1.93;;;2.50;99.90;;;;;;3497045;41;20262;-85
2020/12/07 03:26:42;;;;;;;2.00;1.73;;;2.60;99.90;;;;;;3496765;41;20372;-85
2020/12/07 03:29:08;;;;;;;2.20;2.10;;;2.50;99.90;;;;;;3495091;41;20360;-86
2020/12/07 03:31:37;;;;;;;2.10;2.00;;;2.60;99.90;;;;;;3495810;33;20458;-85
2020/12/07 03:34:03;;;;;;;2.10;1.90;;;2.60;99.90;;;;;;3503948;40;20470;-84
2020/12/07 03:36:29;;;;;;;2.40;2.20;;;2.60;99.90;;;;;;3500407;33;20372;-85
2020/12/07 03:38:55;;;;;;;1.90;1.77;;;2.60;99.90;;;;;;3496221;41;20490;-85
2020/12/07 03:41:21;;;;;;;1.73;1.63;;;2.60;99.90;;;;;;3492986;40;20447;-86
2020/12/07 03:43:47;;;;;;;1.80;1.70;;;2.60;99.90;;;;;;3494356;41;20377;-85
2020/12/07 03:46:13;;;;;;;2.30;2.10;;;2.60;99.90;;;;;;3491903;41;20393;-85
2020/12/07 03:48:39;;;;;;;2.27;2.07;;;2.60;99.90;;;;;;3494066;41;20370;-86
2020/12/07 03:51:05;;;;;;;2.33;2.10;;;2.50;99.90;;;;;;3497059;41;20258;-85
2020/12/07 03:53:32;;;;;;;2.37;2.17;;;2.60;99.90;;;;;;3492472;33;20398;-85
2020/12/07 03:55:58;;;;;;;2.20;2.00;;;2.50;99.90;;;;;;3496317;33;20576;-85
2020/12/07 03:58:24;;;;;;;2.33;2.17;;;2.60;99.90;;;;;;3493041;41;20350;-85
2020/12/07 04:00:50;;;;;;;3.50;1.70;;;2.60;99.90;;;;;;3496589;40;20353;-86
2020/12/07 04:03:16;;;;;;;2.10;1.90;;;2.60;99.90;;;;;;3494341;40;20356;-85
2020/12/07 04:05:45;;;;;;;2.57;2.37;;;2.60;99.90;;;;;;3496130;41;20278;-86
2020/12/07 04:08:11;;;;;;;1.80;1.70;;;2.60;99.90;;;;;;3508695;33;20353;-85
2020/12/07 04:10:40;;;;;;;2.57;2.20;;;2.60;99.90;;;;;;3492609;41;20358;-85
2020/12/07 04:13:06;;;;;;;3.10;2.70;;;2.70;99.90;;;;;;3494722;33;21062;-86
2020/12/07 04:15:44;;;;;;;3.10;2.47;;;2.70;99.90;;;;;;3497876;33;20776;-86
2020/12/07 04:18:10;;;;;;;3.70;3.20;;;2.70;99.90;;;;;;3498601;33;20384;-85
2020/12/07 04:20:35;;;;;;;2.27;2.07;;;2.80;99.90;;;;;;3495935;41;20863;-85
2020/12/07 04:23:01;;;;;;;5.07;2.07;;;2.80;99.90;;;;;;3496382;41;20258;-84
2020/12/07 04:25:27;;;;;;;2.53;2.30;;;2.80;99.90;;;;;;3495826;41;20284;-85
2020/12/07 04:27:52;;;;;;;2.23;2.03;;;2.70;99.90;;;;;;3492156;41;20279;-86
2020/12/07 04:30:18;;;;;;;2.30;2.10;;;2.80;99.90;;;;;;3495258;41;20289;-85
2020/12/07 04:32:44;;;;;;;2.50;2.30;;;2.80;99.90;;;;;;3493555;41;20706;-85
2020/12/07 04:35:09;;;;;;;1.90;1.80;;;2.80;99.90;;;;;;3491432;40;20286;-86
2020/12/07 04:37:35;;;;;;;2.50;2.30;;;2.70;99.90;;;;;;3497188;40;20369;-85
2020/12/07 04:40:02;;;;;;;2.03;1.90;;;2.80;99.90;;;;;;3494557;41;20243;-86
2020/12/07 04:42:29;;;;;;;3.83;2.80;;;2.80;99.90;;;;;;3495590;33;20579;-85
2020/12/07 04:44:55;;;;;;;5.97;3.40;;;2.70;99.90;;;;;;3498359;33;20902;-86
2020/12/07 04:47:23;;;;;;;2.30;2.10;;;2.70;99.90;;;;;;3493791;41;20377;-86
2020/12/07 04:49:49;;;;;;;3.50;2.60;;;2.80;99.90;;;;;;3494866;33;20362;-85
2020/12/07 04:52:15;;;;;;;3.27;2.30;;;2.80;99.90;;;;;;3491818;33;20339;-85
2020/12/07 04:54:42;;;;;;;2.50;2.30;;;2.80;99.90;;;;;;3496068;33;20565;-85
2020/12/07 04:57:09;;;;;;;2.70;2.33;;;2.80;99.90;;;;;;3494480;41;20372;-85
2020/12/07 04:59:40;;;;;;;2.80;2.57;;;2.80;99.90;;;;;;3496124;40;20719;-85
2020/12/07 05:02:06;;;;;;;3.30;2.37;;;2.80;99.90;;;;;;3493081;33;20373;-85
2020/12/07 05:04:32;;;;;;;2.40;2.20;;;2.80;99.90;;;;;;3491822;40;21012;-86
2020/12/07 05:07:01;;;;;;;2.47;2.20;;;2.80;99.90;;;;;;3493712;41;20426;-86
2020/12/07 05:09:29;;;;;;;2.67;2.20;;;2.80;99.90;;;;;;3494770;41;20351;-86
2020/12/07 05:11:56;;;;;;;2.90;2.70;;;2.80;99.90;;;;;;3503242;33;21832;-86
2020/12/07 05:14:22;;;;;;;2.77;2.57;;;2.70;99.90;;;;;;3493348;33;20384;-85
2020/12/07 05:16:50;;;;;;;3.00;2.80;;;2.70;99.90;;;;;;3494109;41;20399;-85
2020/12/07 05:19:20;;;;;;;2.57;2.37;;;2.60;99.90;;;;;;3491741;40;20354;-86
2020/12/07 05:21:46;;;;;;;3.50;3.20;;;2.60;99.90;;;;;;3495772;33;20382;-87
2020/12/07 05:24:12;;;;;;;3.10;2.90;;;2.60;99.90;;;;;;3492681;41;20369;-86
2020/12/07 05:26:43;;;;;;;3.17;2.87;;;2.50;99.90;;;;;;3493318;41;20322;-87
2020/12/07 05:29:24;;;;;;;3.03;2.73;;;2.60;99.90;;;;;;3485798;41;20265;-87
2020/12/07 05:35:44;;;;;;;4.93;3.63;;;2.40;99.90;;;;;;3505256;33;20875;-87
2020/12/07 06:01:53;;;;;;;5.20;4.70;;;2.00;99.90;;;;;;3500085;33;20422;-88
2020/12/07 06:08:34;;;;;;;21.23;13.57;;;2.00;99.90;;;;;;3459561;33;20921;-89
2020/12/07 06:11:13;;;;;;;13.53;8.03;;;1.90;99.90;;;;;;3453803;33;20380;-87
2020/12/07 06:13:50;;;;;;;6.70;6.10;;;1.80;99.90;;;;;;3446434;33;20407;-87
2020/12/07 06:16:16;;;;;;;9.33;7.30;;;1.80;99.90;;;;;;3441447;33;20442;-88
2020/12/07 06:18:44;;;;;;;6.67;5.83;;;1.90;99.90;;;;;;3421699;41;20356;-88
2020/12/07 06:21:18;;;;;;;6.00;5.40;;;1.90;99.90;;;;;;3422945;34;20248;-88
2020/12/07 06:23:50;;;;;;;8.50;7.00;;;1.90;99.90;;;;;;3430800;34;20352;-89
2020/12/07 06:26:18;;;;;;;10.00;7.33;;;2.00;99.90;;;;;;3462877;34;20943;-87
2020/12/07 06:29:08;;;;;;;7.97;7.17;;;2.00;99.90;;;;;;3467424;41;20377;-86
2020/12/07 06:31:36;;;;;;;10.43;8.90;;;2.00;99.90;;;;;;3481376;41;20849;-86
2020/12/07 06:34:10;;;;;;;7.57;6.77;;;2.10;99.90;;;;;;3474557;41;20342;-85
2020/12/07 06:36:38;;;;;;;7.23;6.23;;;2.10;99.90;;;;;;3475817;33;21112;-86
2020/12/07 06:39:07;;;;;;;4.80;4.30;;;2.20;99.90;;;;;;3479408;33;20410;-85
2020/12/07 06:41:38;;;;;;;7.03;6.33;;;2.20;99.90;;;;;;3473588;33;20442;-86
2020/12/07 06:44:11;;;;;;;12.43;9.03;;;2.20;99.90;;;;;;3477125;41;20371;-84
2020/12/07 06:47:05;;;;;;;8.83;7.00;;;2.20;99.90;;;;;;3478902;41;21049;-85
2020/12/07 06:49:40;;;;;;;5.77;5.17;;;2.00;99.90;;;;;;3501264;33;20358;-86
2020/12/07 06:52:16;;;;;;;6.00;4.70;;;2.00;99.90;;;;;;3499639;33;20436;-86
2020/12/07 06:55:07;;;;;;;5.60;4.90;;;1.80;99.90;;;;;;3496313;33;20333;-86
2020/12/07 06:57:42;;;;;;;5.20;4.70;;;1.70;99.90;;;;;;3497803;32;20385;-86
2020/12/07 07:00:12;;;;;;;6.43;5.50;;;1.60;99.90;;;;;;3496673;41;20401;-86
2020/12/07 07:02:41;;;;;;;7.27;6.50;;;1.50;99.90;;;;;;3491909;41;20374;-84
2020/12/07 07:05:08;;;;;;;6.40;5.60;;;1.50;99.90;;;;;;3493347;40;20401;-86
2020/12/07 07:07:34;;;;;;;7.70;6.90;;;1.50;99.90;;;;;;3495317;33;20792;-86
2020/12/07 07:12:39;;;;;;;8.27;7.17;;;1.70;99.90;;;;;;3496932;33;20744;-85
2020/12/07 07:15:06;;;;;;;9.10;7.30;;;1.80;99.90;;;;;;3500179;33;20438;-85
2020/12/07 07:17:40;;;;;;;9.23;7.00;;;1.90;99.90;;;;;;3495302;33;20350;-85
2020/12/07 07:20:10;;;;;;;7.23;6.53;;;2.00;99.90;;;;;;3497911;33;20369;-86
2020/12/07 07:22:41;;;;;;;11.03;6.27;;;2.10;99.90;;;;;;3507003;33;20463;-86
2020/12/07 07:30:24;;;;;;;8.23;7.03;;;2.20;99.90;;;;;;3497426;33;20366;-87
2020/12/07 07:32:52;;;;;;;6.50;5.90;;;2.20;99.90;;;;;;3509569;40;20418;-85
2020/12/07 07:35:23;;;;;;;7.07;6.37;;;2.30;99.90;;;;;;3503110;33;20396;-86
2020/12/07 07:37:49;;;;;;;9.90;8.27;;;2.40;99.90;;;;;;3514422;40;20495;-87
2020/12/07 07:40:27;;;;;;;8.47;7.40;;;2.40;99.90;;;;;;3506735;33;20484;-87
2020/12/07 07:42:56;;;;;;;7.07;6.40;;;2.50;99.90;;;;;;3502761;33;20377;-86
2020/12/07 07:45:23;;;;;;;7.83;7.13;;;2.70;99.90;;;;;;3493238;40;20369;-87
2020/12/07 07:48:02;;;;;;;6.20;5.60;;;2.80;99.90;;;;;;3499561;33;20349;-87
2020/12/07 08:16:22;;;;;;;10.27;9.23;;;3.40;99.90;;;;;;3500648;33;20452;-86
2020/12/07 08:18:59;;;;;;;9.50;8.33;;;3.40;99.90;;;;;;3501031;33;20385;-88
2020/12/07 08:21:32;;;;;;;7.97;6.83;;;3.40;99.90;;;;;;3494429;33;20437;-88
2020/12/07 08:24:05;;;;;;;7.80;5.90;;;3.50;99.90;;;;;;3496537;33;20886;-88
2020/12/07 08:26:31;;;;;;;7.53;6.83;;;3.60;99.90;;;;;;3497232;33;20353;-87
2020/12/07 08:28:58;;;;;;;6.40;5.77;;;4.10;99.90;;;;;;3494332;40;20386;-87
2020/12/07 08:31:23;;;;;;;7.30;6.60;;;4.90;99.90;;;;;;3497588;33;20727;-87
2020/12/07 08:37:07;;;;;;;6.30;5.67;;;6.00;99.90;;;;;;3499624;33;20296;-88
2020/12/07 08:39:32;;;;;;;6.93;5.80;;;6.40;99.90;;;;;;3493645;40;20349;-88
2020/12/07 08:41:58;;;;;;;5.70;5.20;;;6.50;99.90;;;;;;3496389;40;20263;-89
2020/12/07 08:44:24;;;;;;;4.80;4.30;;;6.40;99.90;;;;;;3493227;40;20755;-88
2020/12/07 08:46:49;;;;;;;5.93;5.33;;;6.30;99.90;;;;;;3495140;40;20276;-90
2020/12/07 08:49:16;;;;;;;5.40;4.90;;;6.20;99.90;;;;;;3500172;40;20252;-87
2020/12/07 08:52:05;;;;;;;5.60;5.10;;;5.90;99.90;;;;;;3496408;40;20607;-87
2020/12/07 08:54:32;;;;;;;6.30;5.20;;;5.90;99.90;;;;;;3493362;33;20354;-90
2020/12/07 08:56:58;;;;;;;5.80;5.03;;;6.10;99.90;;;;;;3488937;40;20398;-88
2020/12/07 08:59:23;;;;;;;6.27;4.93;;;6.00;99.90;;;;;;3496873;40;22284;-88
2020/12/07 09:01:49;;;;;;;5.10;4.60;;;5.90;99.90;;;;;;3495484;40;20242;-87
2020/12/07 09:04:15;;;;;;;4.83;4.43;;;5.80;99.90;;;;;;3494124;40;20362;-86
2020/12/07 09:06:40;;;;;;;6.37;5.50;;;5.60;99.90;;;;;;3497246;40;20655;-88
2020/12/07 09:09:07;;;;;;;5.30;4.60;;;5.60;99.90;;;;;;3506906;40;20262;-88
2020/12/07 09:11:34;;;;;;;4.60;4.20;;;5.80;99.90;;;;;;3492602;33;20250;-87
2020/12/07 09:14:10;;;;;;;6.13;3.80;;;6.10;99.90;;;;;;3495727;40;20395;-90
2020/12/07 09:16:46;;;;;;;5.67;5.10;;;6.40;99.90;;;;;;3497030;40;20798;-87
2020/12/07 09:19:11;;;;;;;6.97;6.07;;;6.30;99.90;;;;;;3503876;33;20344;-88
2020/12/07 09:21:37;;;;;;;7.87;6.07;;;6.40;99.90;;;;;;3496192;41;20411;-87
2020/12/07 09:24:03;;;;;;;7.40;6.17;;;6.50;99.90;;;;;;3505161;40;20403;-89
2020/12/07 09:26:29;;;;;;;6.37;5.77;;;6.80;99.90;;;;;;3499942;40;20250;-87
2020/12/07 09:28:54;;;;;;;3.70;3.00;;;7.00;99.90;;;;;;3495512;40;20842;-87
2020/12/07 09:31:20;;;;;;;5.10;4.13;;;6.90;99.90;;;;;;3498836;40;20247;-87
2020/12/07 09:33:47;;;;;;;3.60;3.30;;;7.20;99.90;;;;;;3493735;40;20303;-87
2020/12/07 09:36:13;;;;;;;3.10;2.90;;;7.60;99.90;;;;;;3499630;33;20376;-86
2020/12/07 09:38:38;;;;;;;4.03;3.13;;;7.90;99.90;;;;;;3489229;40;20832;-87
2020/12/07 09:41:04;;;;;;;3.90;3.50;;;7.90;99.90;;;;;;3495866;40;20261;-87
2020/12/07 09:43:30;;;;;;;3.80;3.50;;;8.00;99.90;;;;;;3494914;40;20416;-89
2020/12/07 09:45:58;;;;;;;4.87;4.37;;;8.20;99.90;;;;;;3500987;33;20257;-87
2020/12/07 09:48:24;;;;;;;3.77;3.37;;;8.30;99.90;;;;;;3500870;33;20285;-89
2020/12/07 09:50:50;;;;;;;4.43;3.67;;;8.50;99.90;;;;;;3498447;40;20375;-88
2020/12/07 09:53:20;;;;;;;3.73;3.40;;;8.50;99.90;;;;;;3495329;40;20376;-89
2020/12/07 09:55:46;;;;;;;3.53;3.23;;;8.30;99.90;;;;;;3501567;33;20805;-88
2020/12/07 09:58:23;;;;;;;4.13;3.73;;;8.60;99.90;;;;;;3498546;40;20336;-90
2020/12/07 10:00:49;;;;;;;4.40;4.00;;;8.80;99.90;;;;;;3499245;33;20407;-87
2020/12/07 10:06:18;;;;;;;3.33;3.03;;;9.80;99.90;;;;;;3497918;33;20423;-87
2020/12/07 10:08:45;;;;;;;3.43;3.13;;;10.00;98.20;;;;;;3491310;40;20352;-88
2020/12/07 10:11:17;;;;;;;3.37;3.07;;;10.20;96.90;;;;;;3496774;40;20823;-89
2020/12/07 10:16:30;;;;;;;3.40;2.67;;;10.80;95.50;;;;;;3491013;33;20353;-87
2020/12/07 10:18:56;;;;;;;3.03;2.83;;;11.60;94.90;;;;;;3497076;40;20370;-87
2020/12/07 10:21:25;;;;;;;3.77;3.47;;;11.90;93.60;;;;;;3491736;41;20768;-89
2020/12/07 10:23:51;;;;;;;4.27;3.90;;;12.30;93.90;;;;;;3493657;33;20356;-89
2020/12/07 10:26:30;;;;;;;4.37;4.07;;;12.90;93.50;;;;;;3494238;33;20433;-89
2020/12/07 10:29:00;;;;;;;4.13;3.83;;;13.10;91.10;;;;;;3498282;33;20436;-87
2020/12/07 10:31:42;;;;;;;3.43;3.13;;;13.60;91.00;;;;;;3493972;40;20351;-87
2020/12/07 10:34:16;;;;;;;3.40;3.20;;;13.80;89.10;;;;;;3498767;33;20381;-88
2020/12/07 10:39:49;;;;;;;3.30;3.00;;;13.90;86.70;;;;;;3499489;41;20369;-88
2020/12/07 10:42:17;;;;;;;3.43;3.13;;;13.60;79.10;;;;;;3494150;33;20857;-88
2020/12/07 10:45:17;;;;;;;3.60;3.30;;;13.70;82.00;;;;;;3505437;33;20364;-89
2020/12/07 10:47:43;;;;;;;3.13;2.93;;;14.80;77.30;;;;;;3504006;33;20720;-88
2020/12/07 10:50:27;;;;;;;3.77;3.47;;;15.50;73.90;;;;;;3504238;40;20718;-88
2020/12/07 10:52:53;;;;;;;3.37;3.10;;;16.20;70.50;;;;;;3499412;33;20281;-88
2020/12/07 10:55:30;;;;;;;3.20;3.00;;;16.30;63.80;;;;;;3504835;40;20445;-89
2020/12/07 10:57:57;;;;;;;3.50;3.20;;;15.40;63.00;;;;;;3494605;33;20257;-90
2020/12/07 11:00:24;;;;;;;3.90;3.60;;;13.60;68.40;;;;;;3494789;40;20369;-89
2020/12/07 11:05:51;;;;;;;4.50;2.87;;;15.20;71.90;;;;;;3488342;33;20799;-88
2020/12/07 11:08:21;;;;;;;3.00;2.77;;;15.60;62.50;;;;;;3494000;41;20454;-88
2020/12/07 11:10:47;;;;;;;3.63;3.33;;;14.70;62.70;;;;;;3498320;40;20747;-88
2020/12/07 11:13:26;;;;;;;3.67;3.37;;;12.90;68.60;;;;;;3498520;40;20353;-88
2020/12/07 11:15:52;;;;;;;3.93;3.63;;;11.20;77.30;;;;;;3499601;33;20288;-89
2020/12/07 11:18:18;;;;;;;3.57;3.27;;;10.60;87.40;;;;;;3506060;40;20385;-88
2020/12/07 11:21:13;;;;;;;3.53;3.23;;;11.60;89.70;;;;;;3495376;40;20246;-89
2020/12/07 11:23:41;;;;;;;3.40;3.10;;;12.60;81.60;;;;;;3500621;40;20253;-89
2020/12/07 11:26:07;;;;;;;3.80;3.43;;;11.50;84.50;;;;;;3497583;40;20459;-87
2020/12/07 11:28:33;;;;;;;2.50;2.30;;;9.80;93.10;;;;;;3501384;33;20824;-87
2020/12/07 11:30:59;;;;;;;3.47;3.17;;;8.30;96.80;;;;;;3492848;40;20443;-88
2020/12/07 11:33:25;;;;;;;4.17;3.83;;;8.00;98.90;;;;;;3496574;41;20809;-87
2020/12/07 11:35:51;;;;;;;3.37;3.07;;;7.90;98.80;;;;;;3494015;33;20264;-88
2020/12/07 11:38:20;;;;;;;2.70;2.50;;;7.30;99.90;;;;;;3506610;40;20367;-88
2020/12/07 11:43:49;;;;;;;5.20;4.70;;;6.70;99.90;;;;;;3501338;33;20905;-89
2020/12/07 11:46:16;;;;;;;2.77;2.47;;;6.70;99.90;;;;;;3492805;40;22013;-87
2020/12/07 11:48:42;;;;;;;3.00;2.80;;;6.30;99.90;;;;;;3496650;41;20391;-87
2020/12/07 11:51:08;;;;;;;3.17;2.87;;;6.10;99.90;;;;;;3495463;40;20431;-83
2020/12/07 11:53:46;;;;;;;4.30;3.53;;;5.80;99.90;;;;;;3496135;40;20276;-88
2020/12/07 11:56:12;;;;;;;13.17;11.90;;;5.80;99.90;;;;;;3497774;33;20274;-84
2020/12/07 11:58:38;;;;;;;3.50;3.20;;;5.80;99.90;;;;;;3507137;40;20393;-85
2020/12/07 12:01:04;;;;;;;2.57;2.37;;;6.10;99.90;;;;;;3504014;40;20254;-87
2020/12/07 12:03:29;;;;;;;3.20;2.90;;;6.00;99.90;;;;;;3498797;33;20261;-87
2020/12/07 12:05:55;;;;;;;3.00;2.70;;;5.90;99.90;;;;;;3497644;41;20364;-89
2020/12/07 12:08:22;;;;;;;3.03;2.83;;;6.00;99.90;;;;;;3491853;40;20272;-87
2020/12/07 12:10:48;;;;;;;2.93;2.70;;;5.80;99.90;;;;;;3492242;41;20378;-88
2020/12/07 12:13:14;;;;;;;2.57;2.43;;;5.90;99.90;;;;;;3501008;33;20970;-89
2020/12/07 12:15:40;;;;;;;3.03;2.77;;;6.00;99.90;;;;;;3505632;40;20346;-89
2020/12/07 12:18:06;;;;;;;2.63;2.43;;;5.80;99.90;;;;;;3494158;40;20648;-89
2020/12/07 12:20:31;;;;;;;2.20;2.00;;;5.70;99.90;;;;;;3504683;40;20265;-89
2020/12/07 12:22:57;;;;;;;2.70;2.50;;;5.50;99.90;;;;;;3505813;40;20266;-90
2020/12/07 12:25:24;;;;;;;2.50;2.30;;;5.60;99.90;;;;;;3496890;40;20683;-87
2020/12/07 12:27:50;;;;;;;2.87;2.67;;;5.60;99.90;;;;;;3503023;33;20281;-90
2020/12/07 12:30:16;;;;;;;2.93;2.73;;;5.60;99.90;;;;;;3492474;41;20429;-89
2020/12/07 12:32:41;;;;;;;2.40;2.10;;;5.70;99.90;;;;;;3496840;40;20287;-89
2020/12/07 12:35:07;;;;;;;2.30;2.10;;;5.60;99.90;;;;;;3494159;41;20290;-89
2020/12/07 12:37:33;;;;;;;2.40;1.97;;;5.50;99.90;;;;;;3503646;40;20261;-89
2020/12/07 12:39:58;;;;;;;2.17;1.77;;;5.50;99.90;;;;;;3503181;40;20246;-89
2020/12/07 12:42:24;;;;;;;2.40;2.20;;;5.40;99.90;;;;;;3495414;40;20265;-87
2020/12/07 12:44:50;;;;;;;2.80;2.00;;;5.30;99.90;;;;;;3492831;33;20287;-89
2020/12/07 12:47:15;;;;;;;2.30;2.10;;;5.30;99.90;;;;;;3503988;40;20254;-88
2020/12/07 12:49:47;;;;;;;2.70;2.40;;;5.40;99.90;;;;;;3493048;40;20996;-89
2020/12/07 12:52:13;;;;;;;3.33;2.70;;;5.30;99.90;;;;;;3496351;33;20289;-88
2020/12/07 12:54:44;;;;;;;2.33;2.03;;;5.30;99.90;;;;;;3501539;40;20736;-88
2020/12/07 12:57:10;;;;;;;2.70;2.50;;;5.30;99.90;;;;;;3497050;33;20262;-88
2020/12/07 12:59:45;;;;;;;2.83;2.20;;;5.50;99.90;;;;;;3501540;40;20333;-89
2020/12/07 13:02:10;;;;;;;3.57;2.97;;;5.80;99.90;;;;;;3495594;33;21074;-88
2020/12/07 13:04:36;;;;;;;2.80;2.60;;;6.40;99.90;;;;;;3493933;40;20410;-88
2020/12/07 13:07:02;;;;;;;4.40;3.40;;;6.90;99.90;;;;;;3491309;41;20776;-87
2020/12/07 13:09:28;;;;;;;6.53;4.67;;;6.80;99.90;;;;;;3495775;41;20400;-87
2020/12/07 13:11:53;;;;;;;3.83;3.00;;;7.00;99.90;;;;;;3489060;41;20392;-87
2020/12/07 13:14:19;;;;;;;4.10;2.87;;;6.80;99.90;;;;;;3494231;40;20445;-86
2020/12/07 13:17:02;;;;;;;2.60;2.40;;;6.40;99.90;;;;;;3494507;40;20752;-86
2020/12/07 13:19:28;;;;;;;2.47;2.27;;;6.20;99.90;;;;;;3492000;41;20257;-87
2020/12/07 13:22:09;;;;;;;3.17;2.30;;;6.30;99.90;;;;;;3497066;40;20349;-88
2020/12/07 13:24:42;;;;;;;3.40;3.07;;;6.20;99.90;;;;;;3493013;33;20341;-87
2020/12/07 13:29:36;;;;;;;3.00;2.57;;;5.80;99.90;;;;;;3496228;33;20417;-86
2020/12/07 13:32:02;;;;;;;3.73;3.43;;;5.60;99.90;;;;;;3496224;41;20556;-89
2020/12/07 13:34:28;;;;;;;2.50;2.30;;;5.50;99.90;;;;;;3495812;40;20243;-88
2020/12/07 13:36:53;;;;;;;3.60;3.30;;;5.30;99.90;;;;;;3504021;40;21098;-89
2020/12/07 13:39:19;;;;;;;4.70;3.47;;;5.30;99.90;;;;;;3499724;40;20291;-91
2020/12/07 13:41:48;;;;;;;4.50;3.03;;;5.30;99.90;;;;;;3506513;40;20620;-89
2020/12/07 13:46:58;;;;;;;4.00;2.60;;;5.30;99.90;;;;;;3503406;41;20938;-89
2020/12/07 13:49:24;;;;;;;3.33;2.70;;;5.40;99.90;;;;;;3512212;40;20370;-91
2020/12/07 13:51:50;;;;;;;3.30;3.00;;;5.40;99.90;;;;;;3503983;33;20452;-89
2020/12/07 13:54:16;;;;;;;3.33;2.87;;;5.30;99.90;;;;;;3492222;40;20397;-88
2020/12/07 13:56:42;;;;;;;3.10;2.77;;;5.40;99.90;;;;;;3496359;41;20416;-89
2020/12/07 13:59:09;;;;;;;2.50;2.27;;;5.10;99.90;;;;;;3497213;40;20693;-90
2020/12/07 14:01:41;;;;;;;3.07;2.87;;;5.10;99.90;;;;;;3498585;41;20358;-88
2020/12/07 14:04:26;;;;;;;2.83;2.33;;;5.10;99.90;;;;;;3505544;40;20781;-87
2020/12/07 14:06:52;;;;;;;3.20;2.90;;;4.90;99.90;;;;;;3491317;40;20374;-88
2020/12/07 14:09:18;;;;;;;2.77;2.53;;;4.90;99.90;;;;;;3494969;33;20388;-86
2020/12/07 14:11:47;;;;;;;4.00;3.20;;;4.90;99.90;;;;;;3492748;40;20736;-90
2020/12/07 14:14:15;;;;;;;3.80;2.70;;;4.80;99.90;;;;;;3491817;41;20257;-86
2020/12/07 14:16:42;;;;;;;4.50;3.53;;;4.90;99.90;;;;;;3496375;33;20781;-87
2020/12/07 14:19:12;;;;;;;3.43;3.13;;;4.80;99.90;;;;;;3494870;33;20605;-88
2020/12/07 14:24:18;;;;;;;4.97;4.50;;;4.60;99.90;;;;;;3493903;40;20353;-88
2020/12/07 14:27:12;;;;;;;4.80;4.10;;;4.60;99.90;;;;;;3495847;33;20752;-88
2020/12/07 14:40:59;;;;;;;6.80;3.70;;;4.50;99.90;;;;;;3494957;41;20385;-89
2020/12/07 14:43:25;;;;;;;3.90;3.50;;;4.60;99.90;;;;;;3497249;33;20840;-88